Time;durP1;ratioP1;P1;durP2;ratioP2;P2;SDS_P1;SDS_P2;PMS_P1;PMS_P2;Temp;Humidity;BMP_temperature;BMP_pressure;BME280_temperature;BME280_humidity;BME280_pressure;Samples;Min_cycle;Max_cycle;Signal;HPM_P1;HPM_P2
2021/08/24 00:00:20;;;;;;;5.35;3.15;;;;;;;14.45;100.00;102029.72;5027664;28;20038;-67
2021/08/24 00:02:48;;;;;;;7.55;3.42;;;;;;;14.55;100.00;102028.78;5031312;28;20119;-68
2021/08/24 00:05:21;;;;;;;6.57;2.80;;;;;;;14.44;100.00;102030.75;5032584;28;20041;-67
2021/08/24 00:07:49;;;;;;;4.15;2.85;;;;;;;14.65;100.00;102032.22;5023357;28;20049;-68
2021/08/24 00:10:17;;;;;;;4.95;3.10;;;;;;;14.57;100.00;102030.31;5029449;28;20044;-67
2021/08/24 00:12:45;;;;;;;5.72;2.88;;;;;;;14.54;100.00;102032.47;5030885;28;20046;-67
2021/08/24 00:15:13;;;;;;;6.15;3.05;;;;;;;14.55;100.00;102029.63;5032043;28;20053;-67
2021/08/24 00:17:42;;;;;;;6.35;3.20;;;;;;;14.44;100.00;102027.19;5031758;28;20107;-67
2021/08/24 00:20:12;;;;;;;6.13;2.95;;;;;;;14.38;100.00;102028.69;5027687;28;20041;-68
2021/08/24 00:22:41;;;;;;;7.18;3.75;;;;;;;14.52;100.00;102026.41;5031056;28;20329;-68
2021/08/24 00:25:12;;;;;;;6.50;3.53;;;;;;;14.60;100.00;102029.13;5028239;28;20096;-67
2021/08/24 00:27:39;;;;;;;8.10;4.63;;;;;;;14.55;100.00;102026.09;5029838;28;20041;-67
2021/08/24 00:30:09;;;;;;;6.88;3.67;;;;;;;14.50;100.00;102021.22;5028985;28;20076;-67
2021/08/24 00:32:37;;;;;;;8.27;3.50;;;;;;;14.40;100.00;102018.63;5030606;28;20045;-67
2021/08/24 00:35:08;;;;;;;7.35;3.53;;;;;;;14.25;100.00;102025.59;5031975;28;20053;-67
2021/08/24 00:37:36;;;;;;;5.72;3.67;;;;;;;14.25;100.00;102028.28;5030476;28;20052;-67
2021/08/24 00:40:06;;;;;;;6.70;3.35;;;;;;;14.50;100.00;102028.41;5028361;28;20041;-67
2021/08/24 00:42:34;;;;;;;6.93;3.85;;;;;;;14.29;100.00;102021.59;5028933;28;20091;-67
2021/08/24 00:45:02;;;;;;;5.45;3.03;;;;;;;14.29;100.00;102022.41;5030075;28;20421;-67
2021/08/24 00:47:30;;;;;;;5.90;3.58;;;;;;;14.26;100.00;102019.19;5030863;28;20053;-67
2021/08/24 00:50:03;;;;;;;5.50;3.55;;;;;;;14.25;100.00;102022.91;5024058;28;20476;-67
2021/08/24 00:52:33;;;;;;;7.03;3.88;;;;;;;14.26;100.00;102024.56;5033533;28;20282;-67
2021/08/24 00:55:02;;;;;;;10.82;4.10;;;;;;;14.34;100.00;102021.94;5030587;28;20677;-68
2021/08/24 00:57:30;;;;;;;6.88;3.97;;;;;;;14.32;100.00;102015.03;5026909;28;20049;-67
2021/08/24 00:59:58;;;;;;;6.60;3.63;;;;;;;14.18;100.00;102022.69;5031483;28;20049;-68
2021/08/24 01:02:26;;;;;;;7.00;3.90;;;;;;;14.24;100.00;102029.25;5033311;28;20373;-67
2021/08/24 01:04:55;;;;;;;7.05;3.55;;;;;;;14.26;100.00;102019.19;5031198;28;20053;-67
2021/08/24 01:07:26;;;;;;;7.57;4.65;;;;;;;14.28;100.00;102018.03;5031011;28;20376;-68
2021/08/24 01:10:03;;;;;;;5.70;3.42;;;;;;;14.22;100.00;102018.69;5013181;28;20042;-67
2021/08/24 01:12:38;;;;;;;7.55;4.18;;;;;;;14.05;100.00;102016.91;5028474;28;20050;-67
2021/08/24 01:15:17;;;;;;;6.65;3.55;;;;;;;14.03;100.00;102017.03;5028318;28;20088;-67
2021/08/24 01:17:48;;;;;;;8.15;4.45;;;;;;;14.24;100.00;102019.34;5029142;28;20063;-67
2021/08/24 01:20:32;;;;;;;9.68;4.00;;;;;;;13.98;100.00;102018.50;5032426;28;20045;-67
2021/08/24 01:23:34;;;;;;;7.15;4.32;;;;;;;13.88;100.00;102026.66;5028855;28;20318;-67
2021/08/24 01:26:08;;;;;;;8.48;3.75;;;;;;;13.77;100.00;102028.56;5031217;28;20045;-68
2021/08/24 01:28:45;;;;;;;8.32;4.00;;;;;;;13.71;100.00;102026.50;5029672;28;20087;-68
2021/08/24 01:31:37;;;;;;;8.45;3.75;;;;;;;13.75;100.00;102017.16;5032159;28;20099;-67
2021/08/24 01:34:13;;;;;;;7.65;4.50;;;;;;;13.81;100.00;102025.56;5030748;28;20338;-68
2021/08/24 01:36:47;;;;;;;9.30;4.70;;;;;;;13.95;100.00;102023.19;5028047;28;20043;-67
2021/08/24 01:39:19;;;;;;;10.25;5.38;;;;;;;14.12;100.00;102016.09;5028914;28;20484;-67
2021/08/24 01:41:55;;;;;;;8.02;4.28;;;;;;;14.06;100.00;102016.72;5031168;28;20111;-68
2021/08/24 01:44:25;;;;;;;8.18;5.15;;;;;;;14.14;100.00;102015.09;5025447;28;20261;-68
2021/08/24 01:46:57;;;;;;;8.85;4.38;;;;;;;14.18;100.00;102022.69;5031949;28;20049;-68
2021/08/24 01:49:30;;;;;;;7.57;4.38;;;;;;;14.31;100.00;102022.25;5028544;28;20396;-68
2021/08/24 01:52:03;;;;;;;7.32;4.05;;;;;;;14.34;100.00;102015.72;5029684;28;20045;-68
2021/08/24 01:54:35;;;;;;;11.95;4.88;;;;;;;14.40;100.00;102021.31;5024868;28;20437;-68
2021/08/24 01:57:05;;;;;;;6.95;4.22;;;;;;;14.33;100.00;102017.59;5028530;28;20033;-68
2021/08/24 01:59:36;;;;;;;6.00;4.15;;;;;;;14.29;100.00;102022.41;5025393;28;20045;-67
2021/08/24 02:02:06;;;;;;;9.00;4.07;;;;;;;14.19;100.00;102018.13;5029985;28;20045;-67
2021/08/24 02:04:39;;;;;;;9.20;3.90;;;;;;;14.06;100.00;102023.94;5030217;28;20068;-67
2021/08/24 02:07:10;;;;;;;8.93;4.38;;;;;;;13.97;100.00;102025.72;5027762;28;20042;-67
2021/08/24 02:09:42;;;;;;;7.93;4.22;;;;;;;13.93;100.00;102029.72;5024955;28;20484;-67
2021/08/24 02:12:11;;;;;;;7.28;3.97;;;;;;;13.90;100.00;102030.84;5026164;28;20077;-67
2021/08/24 02:14:41;;;;;;;7.95;4.05;;;;;;;13.90;100.00;102030.03;5029687;28;20095;-67
2021/08/24 02:17:12;;;;;;;6.60;3.75;;;;;;;13.69;100.00;102027.66;5029314;28;20048;-67
2021/08/24 02:19:44;;;;;;;8.20;4.43;;;;;;;13.69;100.00;102028.50;5028703;28;20377;-68
2021/08/24 02:22:15;;;;;;;6.40;4.10;;;;;;;13.55;100.00;102029.91;5027447;28;20103;-67
2021/08/24 02:24:46;;;;;;;6.50;4.32;;;;;;;13.53;100.00;102039.94;5036172;28;20107;-67
2021/08/24 02:27:18;;;;;;;7.68;4.28;;;;;;;13.52;100.00;102037.41;5035284;28;20045;-67
2021/08/24 02:29:46;;;;;;;9.35;6.65;;;;;;;13.63;100.00;102039.84;5030080;28;20041;-67
2021/08/24 02:32:17;;;;;;;11.07;4.63;;;;;;;13.60;100.00;102032.94;5032762;28;20095;-67
2021/08/24 02:34:50;;;;;;;7.55;4.78;;;;;;;13.48;100.00;102033.34;5031074;28;20342;-67
2021/08/24 02:37:25;;;;;;;6.93;4.45;;;;;;;13.45;100.00;102036.31;5037319;28;20333;-67
2021/08/24 02:40:00;;;;;;;11.63;4.75;;;;;;;13.55;100.00;102042.47;5033974;28;20037;-67
2021/08/24 02:42:32;;;;;;;7.25;4.90;;;;;;;13.35;100.00;102037.22;5033426;28;20041;-67
2021/08/24 02:45:06;;;;;;;8.40;4.88;;;;;;;13.34;100.00;102040.91;5035490;28;20395;-67
2021/08/24 02:47:34;;;;;;;8.75;5.20;;;;;;;13.14;100.00;102045.53;5034356;28;20095;-67
2021/08/24 02:50:02;;;;;;;10.52;6.20;;;;;;;13.13;100.00;102049.22;5032304;28;20108;-67
2021/08/24 02:52:33;;;;;;;6.70;4.50;;;;;;;13.27;100.00;102055.91;5030349;28;20115;-67
2021/08/24 02:55:02;;;;;;;7.53;5.13;;;;;;;13.22;100.00;102047.47;5032071;28;20099;-67
2021/08/24 02:57:29;;;;;;;9.88;5.07;;;;;;;13.12;100.00;102052.03;5033448;28;20041;-68
2021/08/24 02:59:57;;;;;;;8.60;5.35;;;;;;;13.21;100.00;102059.19;5034018;28;20052;-67
2021/08/24 03:02:25;;;;;;;8.50;4.93;;;;;;;13.17;100.00;102055.97;5035189;28;20070;-68
2021/08/24 03:04:54;;;;;;;8.13;6.18;;;;;;;13.30;100.00;102055.59;5035180;28;20045;-67
2021/08/24 03:07:26;;;;;;;9.35;4.97;;;;;;;13.27;100.00;102046.00;5024619;28;20429;-67
2021/08/24 03:09:57;;;;;;;8.98;5.15;;;;;;;13.21;100.00;102049.31;5034518;28;20049;-67
2021/08/24 03:12:34;;;;;;;9.75;5.68;;;;;;;13.14;100.00;102056.28;5037984;28;20039;-67
2021/08/24 03:15:09;;;;;;;9.18;5.63;;;;;;;13.12;100.00;102060.94;5033867;28;20418;-67
2021/08/24 03:17:38;;;;;;;;;;;;;;;12.99;100.00;102057.75;5034510;28;20072;-66
2021/08/24 03:20:08;;;;;;;11.20;5.68;;;;;;;12.95;100.00;102059.03;5041336;28;19974;-67
2021/08/24 03:22:36;;;;;;;8.77;5.57;;;;;;;12.88;100.00;102061.47;5033250;28;20421;-67
2021/08/24 03:25:07;;;;;;;9.32;5.75;;;;;;;12.92;100.00;102055.66;5032826;28;20298;-68
2021/08/24 03:27:36;;;;;;;11.00;6.40;;;;;;;12.97;100.00;102065.09;5027618;28;20041;-67
2021/08/24 03:30:10;;;;;;;10.32;6.32;;;;;;;12.84;100.00;102070.78;5030898;28;20044;-67
2021/08/24 03:32:38;;;;;;;8.55;5.00;;;;;;;12.71;100.00;102061.25;5032407;28;20041;-67
2021/08/24 03:35:07;;;;;;;8.02;5.78;;;;;;;12.65;100.00;102061.00;5035897;28;20103;-66
2021/08/24 03:37:35;;;;;;;9.40;6.13;;;;;;;12.66;100.00;102063.53;5038784;28;20046;-66
2021/08/24 03:40:04;;;;;;;8.52;5.80;;;;;;;12.61;100.00;102070.31;5031134;28;20147;-67
2021/08/24 03:42:33;;;;;;;10.68;5.95;;;;;;;12.60;100.00;102069.47;5036335;28;20429;-66
2021/08/24 03:45:01;;;;;;;10.38;6.03;;;;;;;12.79;100.00;102063.19;5026732;28;20041;-66
2021/08/24 03:47:29;;;;;;;8.82;5.32;;;;;;;12.91;100.00;102066.53;5032854;28;20374;-66
2021/08/24 03:49:57;;;;;;;10.85;6.40;;;;;;;12.87;100.00;102066.00;5033074;28;20049;-66
2021/08/24 03:52:26;;;;;;;10.55;5.90;;;;;;;12.83;100.00;102069.97;5034980;28;20079;-66
2021/08/24 03:54:54;;;;;;;13.52;6.13;;;;;;;12.62;100.00;102064.81;5035773;28;20103;-66
2021/08/24 03:57:22;;;;;;;9.32;5.97;;;;;;;12.68;100.00;102066.06;5024697;28;20034;-67
2021/08/24 03:59:53;;;;;;;10.18;6.43;;;;;;;12.64;100.00;102065.50;5030950;28;20042;-67
2021/08/24 04:02:22;;;;;;;9.75;6.07;;;;;;;12.70;100.00;102075.66;5034209;28;20057;-67
2021/08/24 04:04:51;;;;;;;9.23;5.72;;;;;;;12.58;100.00;102074.13;5033762;28;20041;-66
2021/08/24 04:07:19;;;;;;;11.02;6.57;;;;;;;12.66;100.00;102074.25;5035715;28;20040;-67
2021/08/24 04:09:47;;;;;;;9.63;6.32;;;;;;;12.70;100.00;102080.16;5030390;28;20049;-66
2021/08/24 04:12:15;;;;;;;9.43;5.72;;;;;;;12.59;100.00;102073.16;5037238;28;20068;-66
2021/08/24 04:14:42;;;;;;;10.30;6.05;;;;;;;12.59;100.00;102073.16;5030900;28;20629;-66
2021/08/24 04:17:12;;;;;;;10.07;6.10;;;;;;;12.36;100.00;102076.16;5031583;28;20045;-66
2021/08/24 04:19:40;;;;;;;9.30;5.90;;;;;;;12.47;100.00;102079.66;5032914;28;20395;-66
2021/08/24 04:22:08;;;;;;;10.77;6.20;;;;;;;12.33;100.00;102080.97;5027734;28;20046;-66
2021/08/24 04:24:36;;;;;;;9.80;6.25;;;;;;;12.49;100.00;102083.91;5032336;28;20041;-66
2021/08/24 04:27:05;;;;;;;11.25;5.85;;;;;;;12.46;100.00;102081.50;5035178;28;20372;-66
2021/08/24 04:29:33;;;;;;;10.68;7.03;;;;;;;12.33;100.00;102084.50;5031536;28;20037;-66
2021/08/24 04:32:01;;;;;;;10.60;6.72;;;;;;;12.34;100.00;102086.16;5030593;28;20049;-66
2021/08/24 04:34:31;;;;;;;10.25;6.30;;;;;;;12.37;100.00;102096.59;5023630;28;20045;-66
2021/08/24 04:36:59;;;;;;;9.82;6.55;;;;;;;12.26;100.00;102091.38;5033009;28;20049;-67
2021/08/24 04:39:27;;;;;;;13.02;6.50;;;;;;;12.30;100.00;102098.16;5029271;28;20041;-67
2021/08/24 04:41:54;;;;;;;10.43;6.82;;;;;;;12.29;100.00;102092.94;5029685;28;20227;-66
2021/08/24 04:44:22;;;;;;;8.73;6.05;;;;;;;12.28;100.00;102092.13;5029981;28;20052;-66
2021/08/24 04:46:50;;;;;;;10.70;6.30;;;;;;;12.19;100.00;102109.03;5028288;28;20184;-66
2021/08/24 04:49:19;;;;;;;11.48;7.40;;;;;;;12.25;100.00;102104.94;5030227;28;20494;-66
2021/08/24 04:51:48;;;;;;;13.65;7.07;;;;;;;12.34;100.00;102107.59;5027868;28;20500;-67
2021/08/24 04:54:16;;;;;;;10.68;6.50;;;;;;;12.43;100.00;102110.41;5026973;28;20052;-67
2021/08/24 04:56:44;;;;;;;14.35;7.47;;;;;;;12.32;100.00;102114.94;5030423;28;20437;-66
2021/08/24 04:59:12;;;;;;;10.23;6.63;;;;;;;12.22;100.00;102127.50;5022121;28;20046;-66
2021/08/24 05:01:40;;;;;;;9.70;6.22;;;;;;;12.26;100.00;102128.06;5029496;28;20610;-67
2021/08/24 05:04:08;;;;;;;9.70;6.70;;;;;;;12.24;100.00;102122.84;5027685;28;20495;-66
2021/08/24 05:06:36;;;;;;;11.07;7.03;;;;;;;12.20;100.00;102127.63;5030946;28;20381;-66
2021/08/24 05:09:05;;;;;;;11.85;7.15;;;;;;;12.27;100.00;102122.56;5030675;28;20053;-66
2021/08/24 05:11:33;;;;;;;12.00;7.03;;;;;;;12.42;100.00;102122.09;5023622;28;20045;-66
2021/08/24 05:14:01;;;;;;;10.75;6.57;;;;;;;12.43;100.00;102121.97;5028341;28;20041;-66
2021/08/24 05:16:29;;;;;;;10.75;6.03;;;;;;;12.44;100.00;102112.09;5025506;28;20038;-66
2021/08/24 05:18:57;;;;;;;9.77;6.32;;;;;;;12.48;100.00;102118.88;5029006;28;20073;-66
2021/08/24 05:21:25;;;;;;;11.27;6.18;;;;;;;12.53;100.00;102117.44;5027364;28;20045;-67
2021/08/24 05:23:53;;;;;;;8.90;6.18;;;;;;;12.53;100.00;102127.31;5028107;28;20037;-67
2021/08/24 05:26:22;;;;;;;11.13;5.97;;;;;;;12.54;100.00;102129.00;5027923;28;20349;-67
2021/08/24 05:28:50;;;;;;;11.43;5.78;;;;;;;12.65;100.00;102122.66;5019109;28;20041;-68
2021/08/24 05:31:18;;;;;;;9.07;5.75;;;;;;;12.61;100.00;102123.91;5031331;28;20665;-67
2021/08/24 05:33:46;;;;;;;10.73;6.88;;;;;;;12.63;100.00;102132.66;5027196;28;20396;-67
2021/08/24 05:36:14;;;;;;;9.77;6.32;;;;;;;12.73;100.00;102123.59;5031888;28;20045;-67
2021/08/24 05:38:42;;;;;;;8.60;5.72;;;;;;;12.82;100.00;102121.88;5027522;28;20045;-68
2021/08/24 05:41:10;;;;;;;7.75;5.35;;;;;;;12.85;100.00;102126.09;5031270;28;20057;-67
2021/08/24 05:43:39;;;;;;;10.52;5.55;;;;;;;12.96;100.00;102125.94;5028843;28;20445;-68
2021/08/24 05:46:09;;;;;;;9.68;5.47;;;;;;;13.30;100.00;102119.97;5027789;28;20037;-67
2021/08/24 05:48:38;;;;;;;10.88;5.32;;;;;;;13.73;100.00;102113.09;5026107;28;20060;-68
2021/08/24 05:51:08;;;;;;;7.20;4.97;;;;;;;13.97;100.00;102117.03;5034049;28;20115;-67
2021/08/24 05:53:36;;;;;;;9.13;5.38;;;;;;;14.28;100.00;102114.75;5031201;28;20091;-67
2021/08/24 05:56:08;;;;;;;8.93;4.38;;;;;;;14.52;100.00;102107.88;5028465;28;20132;-68
2021/08/24 05:58:36;;;;;;;8.63;4.90;;;;;;;14.75;100.00;102110.06;5028382;28;20057;-67
2021/08/24 06:01:05;;;;;;;7.50;4.95;;;;;;;14.72;100.00;102100.47;5031336;28;20045;-67
2021/08/24 06:03:37;;;;;;;8.25;4.63;;;;;;;14.88;100.00;102105.09;5033731;28;20134;-67
2021/08/24 06:06:05;;;;;;;7.60;4.72;;;;;;;15.04;100.00;102098.97;5030051;28;20337;-67
2021/08/24 06:08:33;;;;;;;6.50;4.68;;;;;;;14.92;100.00;102101.09;5030919;28;20107;-67
2021/08/24 06:11:01;;;;;;;8.30;4.70;;;;;;;15.00;100.00;102097.59;5027835;28;20048;-67
2021/08/24 06:13:29;;;;;;;7.35;4.65;;;;;;;15.11;100.00;102097.31;5030258;28;20049;-67
2021/08/24 06:16:01;;;;;;;6.95;4.82;;;;;;;15.47;100.00;102097.09;5027295;28;20278;-67
2021/08/24 06:18:33;;;;;;;9.27;4.57;;;;;;;15.47;100.00;102094.38;5030441;28;20084;-67
2021/08/24 06:21:01;;;;;;;5.68;4.32;;;;;;;15.68;100.00;102106.56;5032439;28;20048;-67
2021/08/24 06:23:29;;;;;;;6.30;4.40;;;;;;;15.55;100.00;102100.81;5031997;28;20056;-67
2021/08/24 06:25:57;;;;;;;8.27;4.70;;;;;;;15.67;100.00;102108.41;5033903;28;20058;-67
2021/08/24 06:28:25;;;;;;;7.85;5.40;;;;;;;15.60;100.00;102109.22;5028971;28;20042;-67
2021/08/24 06:30:53;;;;;;;7.38;4.15;;;;;;;15.87;100.00;102120.75;5026262;28;20087;-68
2021/08/24 06:33:23;;;;;;;9.43;4.63;;;;;;;16.15;100.00;102113.19;5030154;28;20045;-68
2021/08/24 06:35:53;;;;;;;5.68;4.07;;;;;;;16.30;100.00;102106.13;5026798;28;20441;-67
2021/08/24 06:38:21;;;;;;;6.63;4.15;;;;;;;16.48;100.00;102108.59;5027599;28;20376;-67
2021/08/24 06:40:49;;;;;;;9.63;4.72;;;;;;;16.60;100.00;102114.50;5031892;28;20037;-67
2021/08/24 06:43:17;;;;;;;7.80;4.45;;;;;;;16.44;100.00;102114.53;5029448;28;20046;-67
2021/08/24 06:45:45;;;;;;;6.13;4.32;;;;;;;16.52;100.00;102104.56;5030488;28;20376;-67
2021/08/24 06:48:13;;;;;;;5.95;3.95;;;;;;;16.62;100.00;102108.94;5027114;28;20038;-67
2021/08/24 06:50:41;;;;;;;6.18;4.82;;;;;;;16.89;100.00;102110.41;5032572;28;20034;-67
2021/08/24 06:53:10;;;;;;;7.03;4.63;;;;;;;16.83;100.00;102122.69;5028632;28;20257;-67
2021/08/24 06:55:39;;;;;;;7.13;4.22;;;;;;;17.20;100.00;102115.84;5027835;28;20104;-67
2021/08/24 06:58:08;;;;;;;7.25;4.65;;;;;;;17.23;100.00;102122.75;5029178;28;20037;-67
2021/08/24 07:00:38;;;;;;;7.20;4.90;;;;;;;17.71;100.00;102126.19;5026646;28;20392;-67
2021/08/24 07:03:07;;;;;;;6.43;4.40;;;;;;;17.63;100.00;102125.41;5034779;28;20041;-67
2021/08/24 07:05:35;;;;;;;7.50;4.50;;;;;;;17.19;100.00;102132.22;5032359;28;20368;-67
2021/08/24 07:08:03;;;;;;;5.93;4.50;;;;;;;17.54;100.00;102132.72;5032802;28;20103;-67
2021/08/24 07:10:32;;;;;;;6.70;4.78;;;;;;;17.65;100.00;102135.03;5036256;28;20038;-67
2021/08/24 07:13:00;;;;;;;7.10;4.82;;;;;;;17.46;100.00;102128.19;5030224;28;20131;-67
2021/08/24 07:15:30;;;;;;;8.60;5.30;;;;;;;17.67;100.00;102132.97;5033799;28;20107;-67
2021/08/24 07:17:58;;;;;;;7.28;4.72;;;;;;;17.49;100.00;102124.31;5032152;28;20053;-67
2021/08/24 07:20:26;;;;;;;11.73;4.90;;;;;;;17.89;100.00;102136.72;5035227;28;20049;-67
2021/08/24 07:22:56;;;;;;;10.35;5.50;;;;;;;17.55;100.00;102129.84;5030746;28;20045;-67
2021/08/24 07:25:26;;;;;;;9.10;4.97;;;;;;;17.77;100.00;102124.66;5028528;28;20057;-67
2021/08/24 07:27:56;;;;;;;8.60;5.05;;;;;;;18.41;100.00;102128.91;5030497;28;20335;-67
2021/08/24 07:30:24;;;;;;;7.85;4.95;;;;;;;18.34;100.00;102130.66;5033297;28;20333;-67
2021/08/24 07:32:52;;;;;;;6.38;4.45;;;;;;;18.31;100.00;102134.56;5032926;28;20060;-68
2021/08/24 07:35:20;;;;;;;11.18;4.85;;;;;;;18.14;100.00;102127.63;5037679;28;20104;-67
2021/08/24 07:37:48;;;;;;;7.40;4.70;;;;;;;18.07;100.00;102135.59;5031725;28;20394;-67
2021/08/24 07:40:17;;;;;;;6.88;4.93;;;;;;;18.11;100.00;102136.94;5025474;28;20128;-67
2021/08/24 07:42:46;;;;;;;8.68;5.32;;;;;;;18.14;100.00;102131.16;5036323;28;20045;-67
2021/08/24 07:45:16;;;;;;;7.95;4.88;;;;;;;17.85;100.00;102132.69;5030998;28;20050;-67
2021/08/24 07:47:48;;;;;;;8.80;4.63;;;;;;;17.94;100.00;102133.50;5027542;28;20045;-68
2021/08/24 07:50:16;;;;;;;9.35;5.15;;;;;;;18.65;100.00;102143.22;5032121;28;20341;-68
2021/08/24 07:52:44;;;;;;;7.45;4.65;;;;;;;19.20;100.00;102143.81;5028970;28;20157;-67
2021/08/24 07:55:13;;;;;;;6.25;4.60;;;;;;;18.67;100.00;102136.59;5032580;28;20053;-68
2021/08/24 07:57:40;;;;;;;8.90;5.10;;;;;;;18.42;100.00;102144.09;5028054;28;20072;-67
2021/08/24 08:00:09;;;;;;;6.53;4.50;;;;;;;18.74;100.00;102145.66;5025377;28;20461;-67
2021/08/24 08:02:39;;;;;;;6.97;4.93;;;;;;;18.50;100.00;102145.88;5033171;28;20091;-68
2021/08/24 08:05:09;;;;;;;8.88;4.70;;;;;;;18.99;100.00;102140.00;5030673;28;20440;-67
2021/08/24 08:07:37;;;;;;;7.72;5.47;;;;;;;18.71;100.00;102147.88;5031115;28;20108;-68
2021/08/24 08:10:06;;;;;;;10.00;5.50;;;;;;;19.42;100.00;102147.41;5030841;28;20042;-67
2021/08/24 08:12:34;;;;;;;8.65;5.45;;;;;;;19.02;100.00;102138.78;5028639;28;20045;-67
2021/08/24 08:15:02;;;;;;;7.57;5.75;;;;;;;19.23;100.00;102141.56;5032465;28;20091;-68
2021/08/24 08:17:30;;;;;;;8.65;4.97;;;;;;;19.74;100.00;102148.81;5024087;28;20071;-67
2021/08/24 08:19:59;;;;;;;6.57;5.28;;;;;;;20.20;100.00;102147.66;5028299;28;20049;-67
2021/08/24 08:22:27;;;;;;;7.53;4.63;;;;;;;19.62;100.00;102142.25;5026961;28;20048;-68
2021/08/24 08:24:55;;;;;;;6.82;4.72;;;;;;;19.93;100.00;102146.53;5010897;28;20052;-68
2021/08/24 08:27:22;;;;;;;9.18;4.50;;;;;;;20.66;100.00;102150.94;5029233;28;20041;-67
2021/08/24 08:29:51;;;;;;;11.02;4.93;;;;;;;20.81;100.00;102146.25;5027877;28;20046;-67
2021/08/24 08:32:22;;;;;;;9.00;5.20;;;;;;;19.81;100.00;102140.81;5029215;28;20037;-68
2021/08/24 08:34:50;;;;;;;7.65;5.32;;;;;;;19.88;100.00;102147.13;5030246;28;20042;-67
2021/08/24 08:37:20;;;;;;;7.63;4.63;;;;;;;20.03;100.00;102151.63;5032374;28;20350;-67
2021/08/24 08:39:48;;;;;;;7.78;5.32;;;;;;;20.26;100.00;102146.03;5029343;28;20411;-67
2021/08/24 08:42:31;;;;;;;6.82;4.70;;;;;;;20.98;100.00;102144.06;5028809;28;20048;-67
2021/08/24 08:45:03;;;;;;;7.28;5.18;;;;;;;20.19;100.00;102156.00;5033570;28;20044;-67
2021/08/24 08:47:41;;;;;;;10.93;5.63;;;;;;;20.45;100.00;102144.50;5027362;28;20211;-68
2021/08/24 08:50:17;;;;;;;7.32;4.82;;;;;;;21.42;100.00;102150.09;5025976;28;20080;-67
2021/08/24 08:52:52;;;;;;;6.32;4.65;;;;;;;21.75;100.00;102149.41;5031898;28;20045;-67
2021/08/24 08:55:25;;;;;;;6.97;4.07;;;;;;;21.79;100.00;102145.25;5023632;28;20251;-68
2021/08/24 08:58:00;;;;;;;7.63;4.47;;;;;;;21.50;100.00;102141.75;5030890;28;20053;-68
2021/08/24 09:00:44;;;;;;;6.75;4.32;;;;;;;21.46;100.00;102138.63;5025627;28;20506;-68
2021/08/24 09:03:17;;;;;;;8.52;4.43;;;;;;;22.35;100.00;102134.03;5028594;28;20041;-68
2021/08/24 09:05:47;;;;;;;7.47;4.38;;;;;;;22.27;100.00;102142.34;5030222;28;20142;-68
2021/08/24 09:08:19;;;;;;;6.30;3.95;;;;;;;21.92;100.00;102139.81;5027169;28;20033;-68
2021/08/24 09:10:49;;;;;;;6.97;3.80;;;;;;;23.19;100.00;102137.00;5028928;28;20241;-68
2021/08/24 09:13:23;;;;;;;6.93;3.70;;;;;;;23.34;100.00;102139.44;5030761;28;20045;-68
2021/08/24 09:15:57;;;;;;;5.23;3.03;;;;;;;22.92;100.00;102135.38;5027538;28;20448;-68
2021/08/24 09:18:39;;;;;;;4.93;3.10;;;;;;;22.68;100.00;102124.97;5031107;28;20057;-68
2021/08/24 09:21:10;;;;;;;5.05;3.13;;;;;;;22.62;100.00;102130.41;5026215;28;20357;-68
2021/08/24 09:23:39;;;;;;;5.45;3.53;;;;;;;21.41;100.00;102126.69;5027622;28;20049;-68
2021/08/24 09:26:25;;;;;;;5.47;3.17;;;;;;;21.44;100.00;102121.69;5027622;28;20041;-68
2021/08/24 09:28:56;;;;;;;3.75;2.85;;;;;;;22.33;100.00;102116.22;5017740;28;20041;-68
2021/08/24 09:31:25;;;;;;;5.05;3.20;;;;;;;22.63;100.00;102122.03;5029766;28;20072;-67
2021/08/24 09:33:53;;;;;;;4.22;3.00;;;;;;;22.26;100.00;102124.34;5027244;28;20095;-67
2021/08/24 09:36:21;;;;;;;5.70;3.30;;;;;;;21.84;100.00;102120.97;5026841;28;20337;-67
2021/08/24 09:38:52;;;;;;;3.72;2.30;;;;;;;22.64;100.00;102114.69;5023737;28;20274;-67
2021/08/24 09:41:24;;;;;;;4.82;2.17;;;;;;;22.86;100.00;102113.38;5025512;28;20046;-67
2021/08/24 09:43:54;;;;;;;5.05;2.72;;;;;;;22.69;100.00;102110.28;5025927;28;20097;-68
2021/08/24 09:46:33;;;;;;;7.47;2.53;;;;;;;23.09;100.00;102122.13;5026658;28;20045;-68
2021/08/24 09:49:05;;;;;;;4.03;2.40;;;;;;;23.59;100.00;102116.88;5027370;28;20095;-68
2021/08/24 09:51:45;;;;;;;4.65;2.53;;;;;;;22.87;100.00;102114.25;5030617;28;20114;-68
2021/08/24 09:54:29;;;;;;;4.55;2.70;;;;;;;22.93;100.00;102126.97;5028105;28;20048;-67
2021/08/24 09:56:59;;;;;;;5.17;2.30;;;;;;;21.65;100.00;102122.63;5031051;28;20053;-68
2021/08/24 09:59:30;;;;;;;9.52;3.13;;;;;;;22.98;100.00;102112.72;5026789;28;20318;-68
2021/08/24 10:01:58;;;;;;;5.38;2.47;;;;;;;21.64;100.00;102110.06;5027795;28;20037;-68
2021/08/24 10:04:26;;;;;;;4.50;2.33;;;;;;;22.22;100.00;102104.03;5030200;28;20135;-68
2021/08/24 10:07:01;;;;;;;3.90;2.60;;;;;;;21.37;100.00;102104.53;5022382;28;20310;-68
2021/08/24 10:09:32;;;;;;;2.67;2.03;;;;;;;22.91;100.00;102099.16;5031025;28;20033;-68
2021/08/24 10:12:21;;;;;;;3.58;2.55;;;;;;;23.68;100.00;102099.19;5027231;28;20069;-67
2021/08/24 10:14:49;;;;;;;5.78;3.13;;;;;;;23.04;100.00;102092.81;5025288;28;20045;-68
2021/08/24 10:17:30;;;;;;;3.22;2.33;;;;;;;24.12;100.00;102098.50;5030252;28;20049;-68
2021/08/24 10:19:58;;;;;;;3.05;2.38;;;;;;;23.27;100.00;102092.31;5023840;28;20583;-67
2021/08/24 10:22:30;;;;;;;6.68;2.38;;;;;;;23.52;100.00;102094.28;5026495;28;20050;-68
2021/08/24 10:25:03;;;;;;;3.80;2.10;;;;;;;23.40;100.00;102096.03;5028398;28;20114;-68
2021/08/24 10:27:33;;;;;;;3.80;2.17;;;;;;;23.14;100.00;102095.94;5027151;28;20460;-68
2021/08/24 10:30:04;;;;;;;4.13;2.22;;;;;;;23.31;100.00;102098.16;5024691;28;20126;-68
2021/08/24 10:32:35;;;;;;;2.83;2.05;;;;;;;22.51;100.00;102093.78;5019825;28;20080;-68
2021/08/24 10:35:14;;;;;;;3.65;2.40;;;;;;;23.25;100.00;102093.56;5028588;28;20096;-67
2021/08/24 10:37:45;;;;;;;3.70;2.05;;;;;;;23.96;100.00;102084.34;5028174;28;20507;-67
2021/08/24 10:40:27;;;;;;;4.32;2.40;;;;;;;24.21;100.00;102084.34;5024448;28;20057;-68
2021/08/24 10:43:30;;;;;;;5.15;2.38;;;;;;;22.67;100.00;102093.34;5029670;28;20108;-67
2021/08/24 10:46:15;;;;;;;3.72;2.67;;;;;;;23.45;100.00;102080.69;5031778;28;20436;-67
2021/08/24 10:48:43;;;;;;;;;;;;;;;22.59;100.00;102085.41;5027807;28;20180;-67
2021/08/24 10:51:23;;;;;;;3.75;2.20;;;;;;;22.48;100.00;102077.88;5030403;28;19921;-68
2021/08/24 10:53:59;;;;;;;5.97;1.83;;;;;;;22.06;100.00;102074.53;5030479;28;20049;-67
2021/08/24 10:56:33;;;;;;;3.05;2.17;;;;;;;23.06;100.00;102078.97;5032094;28;20041;-68
2021/08/24 10:59:09;;;;;;;2.60;1.73;;;;;;;22.69;100.00;102082.22;5031955;28;20057;-68
2021/08/24 11:01:45;;;;;;;3.22;2.05;;;;;;;21.17;100.00;102079.19;5028683;28;20469;-67
2021/08/24 11:04:38;;;;;;;3.75;2.55;;;;;;;22.46;100.00;102069.09;5026151;28;20056;-68
2021/08/24 11:07:13;;;;;;;3.13;1.70;;;;;;;23.72;100.00;102067.69;5015307;28;20057;-67
2021/08/24 11:09:41;;;;;;;;;;;;;;;23.90;100.00;102066.13;5029232;28;20057;-68
2021/08/24 11:12:19;;;;;;;4.97;1.80;;;;;;;23.95;100.00;102071.75;5028825;28;20492;-66
2021/08/24 11:14:57;;;;;;;2.38;1.85;;;;;;;23.15;100.00;102064.06;5031807;28;20050;-67
2021/08/24 11:17:32;;;;;;;3.70;1.58;;;;;;;24.31;100.00;102070.19;5025443;28;20056;-67
2021/08/24 11:20:07;;;;;;;1.85;1.58;;;;;;;23.18;100.00;102063.66;5029018;28;20049;-68
2021/08/24 11:22:51;;;;;;;6.10;1.73;;;;;;;23.56;100.00;102068.25;5026741;28;20037;-67
2021/08/24 11:25:31;;;;;;;3.22;2.45;;;;;;;24.37;100.00;102069.28;5022164;28;20376;-68
2021/08/24 11:28:04;;;;;;;3.28;1.80;;;;;;;24.58;100.00;102062.56;5029714;28;20103;-68
2021/08/24 11:30:38;;;;;;;3.60;2.30;;;;;;;23.54;100.00;102065.72;5031080;28;20041;-68
2021/08/24 11:33:10;;;;;;;3.83;1.98;;;;;;;22.98;100.00;102064.53;5029500;28;20270;-69